sensor_id;sensor_type;location;lat;lon;timestamp;P1;durP1;ratioP1;P2;durP2;ratioP2
70975;SDS011;58635;51.198;6.010;2022-10-12T00:01:04;8.52;;;3.30;;
70975;SDS011;58635;51.198;6.010;2022-10-12T00:03:31;6.95;;;2.97;;
70975;SDS011;58635;51.198;6.010;2022-10-12T00:06:12;9.05;;;3.35;;
70975;SDS011;58635;51.198;6.010;2022-10-12T00:08:42;8.40;;;3.63;;
70975;SDS011;58635;51.198;6.010;2022-10-12T00:11:10;9.75;;;3.13;;
70975;SDS011;58635;51.198;6.010;2022-10-12T00:13:38;7.70;;;3.13;;
70975;SDS011;58635;51.198;6.010;2022-10-12T00:16:04;7.40;;;3.40;;
70975;SDS011;58635;51.198;6.010;2022-10-12T00:18:31;9.55;;;3.80;;
70975;SDS011;58635;51.198;6.010;2022-10-12T00:21:14;8.52;;;3.40;;
70975;SDS011;58635;51.198;6.010;2022-10-12T00:23:41;6.90;;;3.25;;
70975;SDS011;58635;51.198;6.010;2022-10-12T00:26:09;8.30;;;3.30;;
70975;SDS011;58635;51.198;6.010;2022-10-12T00:28:37;7.72;;;3.22;;
70975;SDS011;58635;51.198;6.010;2022-10-12T00:31:10;6.60;;;3.42;;
70975;SDS011;58635;51.198;6.010;2022-10-12T00:33:38;8.48;;;3.63;;
70975;SDS011;58635;51.198;6.010;2022-10-12T00:36:16;8.07;;;3.35;;
70975;SDS011;58635;51.198;6.010;2022-10-12T00:38:42;7.20;;;3.08;;
70975;SDS011;58635;51.198;6.010;2022-10-12T00:41:09;8.82;;;2.95;;
70975;SDS011;58635;51.198;6.010;2022-10-12T00:43:36;8.88;;;3.42;;
70975;SDS011;58635;51.198;6.010;2022-10-12T00:46:05;9.20;;;3.70;;
70975;SDS011;58635;51.198;6.010;2022-10-12T00:48:38;9.43;;;3.80;;
70975;SDS011;58635;51.198;6.010;2022-10-12T00:51:04;11.73;;;3.40;;
70975;SDS011;58635;51.198;6.010;2022-10-12T00:53:31;12.32;;;3.60;;
70975;SDS011;58635;51.198;6.010;2022-10-12T00:56:02;13.55;;;3.80;;
70975;SDS011;58635;51.198;6.010;2022-10-12T00:58:31;8.68;;;3.45;;
70975;SDS011;58635;51.198;6.010;2022-10-12T01:01:01;10.93;;;3.53;;
70975;SDS011;58635;51.198;6.010;2022-10-12T01:03:28;8.68;;;3.88;;
70975;SDS011;58635;51.198;6.010;2022-10-12T01:05:55;8.00;;;3.38;;
70975;SDS011;58635;51.198;6.010;2022-10-12T01:08:21;10.43;;;3.40;;
70975;SDS011;58635;51.198;6.010;2022-10-12T01:10:47;6.45;;;3.30;;
70975;SDS011;58635;51.198;6.010;2022-10-12T01:13:12;8.13;;;3.58;;
70975;SDS011;58635;51.198;6.010;2022-10-12T01:15:38;10.63;;;3.70;;
70975;SDS011;58635;51.198;6.010;2022-10-12T01:18:14;8.38;;;3.30;;
70975;SDS011;58635;51.198;6.010;2022-10-12T01:23:31;10.60;;;3.75;;
70975;SDS011;58635;51.198;6.010;2022-10-12T01:31:58;8.30;;;3.60;;
70975;SDS011;58635;51.198;6.010;2022-10-12T01:34:47;8.55;;;3.85;;
70975;SDS011;58635;51.198;6.010;2022-10-12T01:37:20;8.43;;;3.88;;
70975;SDS011;58635;51.198;6.010;2022-10-12T01:39:55;7.47;;;3.88;;
70975;SDS011;58635;51.198;6.010;2022-10-12T01:42:29;9.68;;;3.97;;
70975;SDS011;58635;51.198;6.010;2022-10-12T01:45:06;8.40;;;3.85;;
70975;SDS011;58635;51.198;6.010;2022-10-12T01:47:37;8.38;;;3.70;;
70975;SDS011;58635;51.198;6.010;2022-10-12T01:50:05;10.23;;;4.05;;
70975;SDS011;58635;51.198;6.010;2022-10-12T01:52:38;9.52;;;3.78;;
70975;SDS011;58635;51.198;6.010;2022-10-12T01:55:36;10.40;;;4.53;;
70975;SDS011;58635;51.198;6.010;2022-10-12T01:58:10;11.82;;;4.20;;
70975;SDS011;58635;51.198;6.010;2022-10-12T02:03:37;11.63;;;3.65;;
70975;SDS011;58635;51.198;6.010;2022-10-12T02:06:16;8.05;;;3.60;;
70975;SDS011;58635;51.198;6.010;2022-10-12T02:09:05;10.18;;;3.65;;
70975;SDS011;58635;51.198;6.010;2022-10-12T02:11:32;8.77;;;3.50;;
70975;SDS011;58635;51.198;6.010;2022-10-12T02:14:03;9.75;;;3.30;;
70975;SDS011;58635;51.198;6.010;2022-10-12T02:16:36;8.20;;;3.58;;
70975;SDS011;58635;51.198;6.010;2022-10-12T02:19:14;8.02;;;3.55;;
70975;SDS011;58635;51.198;6.010;2022-10-12T02:21:45;10.15;;;3.83;;
70975;SDS011;58635;51.198;6.010;2022-10-12T02:24:11;9.00;;;3.88;;
70975;SDS011;58635;51.198;6.010;2022-10-12T02:26:40;11.07;;;3.80;;
70975;SDS011;58635;51.198;6.010;2022-10-12T02:29:09;12.43;;;3.90;;
70975;SDS011;58635;51.198;6.010;2022-10-12T02:34:17;10.05;;;4.20;;
70975;SDS011;58635;51.198;6.010;2022-10-12T02:36:48;9.55;;;4.50;;
70975;SDS011;58635;51.198;6.010;2022-10-12T02:39:25;8.40;;;4.18;;
70975;SDS011;58635;51.198;6.010;2022-10-12T02:42:05;8.77;;;4.18;;
70975;SDS011;58635;51.198;6.010;2022-10-12T02:44:36;9.52;;;4.43;;
70975;SDS011;58635;51.198;6.010;2022-10-12T02:47:05;7.32;;;4.72;;
70975;SDS011;58635;51.198;6.010;2022-10-12T02:49:32;12.65;;;4.80;;
70975;SDS011;58635;51.198;6.010;2022-10-12T02:52:00;11.63;;;4.88;;
70975;SDS011;58635;51.198;6.010;2022-10-12T02:54:28;10.13;;;5.00;;
70975;SDS011;58635;51.198;6.010;2022-10-12T02:56:54;13.85;;;5.30;;
70975;SDS011;58635;51.198;6.010;2022-10-12T02:59:19;10.73;;;5.60;;
70975;SDS011;58635;51.198;6.010;2022-10-12T03:01:45;11.98;;;5.55;;
70975;SDS011;58635;51.198;6.010;2022-10-12T03:04:10;8.50;;;5.05;;
70975;SDS011;58635;51.198;6.010;2022-10-12T03:06:35;11.23;;;5.10;;
70975;SDS011;58635;51.198;6.010;2022-10-12T03:09:01;10.95;;;5.22;;
70975;SDS011;58635;51.198;6.010;2022-10-12T03:11:29;10.15;;;4.60;;
70975;SDS011;58635;51.198;6.010;2022-10-12T03:13:54;10.02;;;4.93;;
70975;SDS011;58635;51.198;6.010;2022-10-12T03:16:20;10.75;;;4.90;;
70975;SDS011;58635;51.198;6.010;2022-10-12T03:18:46;10.00;;;4.70;;
70975;SDS011;58635;51.198;6.010;2022-10-12T03:21:11;8.20;;;4.55;;
70975;SDS011;58635;51.198;6.010;2022-10-12T03:23:37;8.77;;;4.50;;
70975;SDS011;58635;51.198;6.010;2022-10-12T03:26:03;9.30;;;4.65;;
70975;SDS011;58635;51.198;6.010;2022-10-12T03:28:29;9.45;;;4.68;;
70975;SDS011;58635;51.198;6.010;2022-10-12T03:30:55;10.80;;;5.25;;
70975;SDS011;58635;51.198;6.010;2022-10-12T03:33:21;8.05;;;4.50;;
70975;SDS011;58635;51.198;6.010;2022-10-12T03:35:46;9.68;;;4.85;;
70975;SDS011;58635;51.198;6.010;2022-10-12T03:38:13;10.07;;;4.20;;
70975;SDS011;58635;51.198;6.010;2022-10-12T03:40:39;10.45;;;4.57;;
70975;SDS011;58635;51.198;6.010;2022-10-12T03:43:05;12.27;;;4.47;;
70975;SDS011;58635;51.198;6.010;2022-10-12T03:45:31;10.38;;;4.65;;
70975;SDS011;58635;51.198;6.010;2022-10-12T03:47:56;13.30;;;5.10;;
70975;SDS011;58635;51.198;6.010;2022-10-12T03:50:22;9.80;;;4.75;;
70975;SDS011;58635;51.198;6.010;2022-10-12T03:52:47;13.07;;;4.63;;
70975;SDS011;58635;51.198;6.010;2022-10-12T03:55:13;10.75;;;4.78;;
70975;SDS011;58635;51.198;6.010;2022-10-12T03:57:38;13.93;;;5.32;;
70975;SDS011;58635;51.198;6.010;2022-10-12T04:00:04;9.75;;;4.78;;
70975;SDS011;58635;51.198;6.010;2022-10-12T04:02:30;11.23;;;4.95;;
70975;SDS011;58635;51.198;6.010;2022-10-12T04:04:55;12.68;;;5.35;;
70975;SDS011;58635;51.198;6.010;2022-10-12T04:07:21;14.75;;;6.47;;
70975;SDS011;58635;51.198;6.010;2022-10-12T04:09:46;12.02;;;6.32;;
70975;SDS011;58635;51.198;6.010;2022-10-12T04:12:12;9.52;;;5.47;;
70975;SDS011;58635;51.198;6.010;2022-10-12T04:14:38;8.27;;;4.60;;
70975;SDS011;58635;51.198;6.010;2022-10-12T04:17:03;12.77;;;5.75;;
70975;SDS011;58635;51.198;6.010;2022-10-12T04:19:29;7.85;;;5.00;;
70975;SDS011;58635;51.198;6.010;2022-10-12T04:21:54;10.02;;;5.28;;
70975;SDS011;58635;51.198;6.010;2022-10-12T04:24:19;12.20;;;4.75;;
70975;SDS011;58635;51.198;6.010;2022-10-12T04:26:45;11.35;;;5.10;;
70975;SDS011;58635;51.198;6.010;2022-10-12T04:29:11;10.40;;;4.78;;
70975;SDS011;58635;51.198;6.010;2022-10-12T04:31:37;13.63;;;5.00;;
70975;SDS011;58635;51.198;6.010;2022-10-12T04:34:03;10.13;;;4.90;;
70975;SDS011;58635;51.198;6.010;2022-10-12T04:36:29;13.07;;;5.20;;
70975;SDS011;58635;51.198;6.010;2022-10-12T04:38:54;10.23;;;5.25;;
70975;SDS011;58635;51.198;6.010;2022-10-12T04:41:20;12.68;;;5.88;;
70975;SDS011;58635;51.198;6.010;2022-10-12T04:43:45;13.40;;;4.85;;
70975;SDS011;58635;51.198;6.010;2022-10-12T04:46:10;13.30;;;4.75;;
70975;SDS011;58635;51.198;6.010;2022-10-12T04:48:36;14.07;;;5.07;;
70975;SDS011;58635;51.198;6.010;2022-10-12T04:51:02;12.20;;;4.90;;
70975;SDS011;58635;51.198;6.010;2022-10-12T04:53:27;11.85;;;5.22;;
70975;SDS011;58635;51.198;6.010;2022-10-12T04:55:53;9.85;;;4.95;;
70975;SDS011;58635;51.198;6.010;2022-10-12T04:58:18;10.45;;;5.13;;
70975;SDS011;58635;51.198;6.010;2022-10-12T05:00:44;9.93;;;5.32;;
70975;SDS011;58635;51.198;6.010;2022-10-12T05:03:11;9.35;;;5.07;;
70975;SDS011;58635;51.198;6.010;2022-10-12T05:05:36;10.43;;;7.30;;
70975;SDS011;58635;51.198;6.010;2022-10-12T05:08:03;11.85;;;7.03;;
70975;SDS011;58635;51.198;6.010;2022-10-12T05:10:29;11.50;;;5.68;;
70975;SDS011;58635;51.198;6.010;2022-10-12T05:12:55;13.52;;;5.57;;
70975;SDS011;58635;51.198;6.010;2022-10-12T05:15:20;12.43;;;5.78;;
70975;SDS011;58635;51.198;6.010;2022-10-12T05:17:45;10.63;;;5.55;;
70975;SDS011;58635;51.198;6.010;2022-10-12T05:20:11;9.70;;;5.15;;
70975;SDS011;58635;51.198;6.010;2022-10-12T05:22:36;10.85;;;6.43;;
70975;SDS011;58635;51.198;6.010;2022-10-12T05:25:02;12.00;;;6.28;;
70975;SDS011;58635;51.198;6.010;2022-10-12T05:27:28;12.23;;;6.32;;
70975;SDS011;58635;51.198;6.010;2022-10-12T05:29:53;12.50;;;6.43;;
70975;SDS011;58635;51.198;6.010;2022-10-12T05:32:19;10.10;;;6.07;;
70975;SDS011;58635;51.198;6.010;2022-10-12T05:34:44;10.80;;;6.38;;
70975;SDS011;58635;51.198;6.010;2022-10-12T05:37:10;12.60;;;6.07;;
70975;SDS011;58635;51.198;6.010;2022-10-12T05:39:35;15.07;;;6.88;;
70975;SDS011;58635;51.198;6.010;2022-10-12T05:42:01;11.43;;;6.90;;
70975;SDS011;58635;51.198;6.010;2022-10-12T05:44:27;16.75;;;7.28;;
70975;SDS011;58635;51.198;6.010;2022-10-12T05:46:53;14.05;;;7.60;;
70975;SDS011;58635;51.198;6.010;2022-10-12T05:49:18;13.38;;;6.05;;
70975;SDS011;58635;51.198;6.010;2022-10-12T05:51:44;13.35;;;6.28;;
70975;SDS011;58635;51.198;6.010;2022-10-12T05:54:09;10.27;;;6.03;;
70975;SDS011;58635;51.198;6.010;2022-10-12T05:56:34;15.10;;;6.20;;
70975;SDS011;58635;51.198;6.010;2022-10-12T05:59:00;13.45;;;5.85;;
70975;SDS011;58635;51.198;6.010;2022-10-12T06:01:25;13.52;;;6.22;;
70975;SDS011;58635;51.198;6.010;2022-10-12T06:03:51;12.40;;;7.05;;
70975;SDS011;58635;51.198;6.010;2022-10-12T06:06:18;14.73;;;6.70;;
70975;SDS011;58635;51.198;6.010;2022-10-12T06:08:44;15.18;;;7.32;;
70975;SDS011;58635;51.198;6.010;2022-10-12T06:11:09;13.82;;;7.60;;
70975;SDS011;58635;51.198;6.010;2022-10-12T06:13:35;12.07;;;7.03;;
70975;SDS011;58635;51.198;6.010;2022-10-12T06:16:00;12.95;;;6.38;;
70975;SDS011;58635;51.198;6.010;2022-10-12T06:18:25;13.13;;;6.55;;
70975;SDS011;58635;51.198;6.010;2022-10-12T06:20:52;15.02;;;6.78;;
70975;SDS011;58635;51.198;6.010;2022-10-12T06:23:18;12.93;;;6.53;;
70975;SDS011;58635;51.198;6.010;2022-10-12T06:25:45;16.48;;;6.93;;
70975;SDS011;58635;51.198;6.010;2022-10-12T06:28:12;11.35;;;6.43;;
70975;SDS011;58635;51.198;6.010;2022-10-12T06:30:38;13.68;;;7.10;;
70975;SDS011;58635;51.198;6.010;2022-10-12T06:33:04;12.63;;;7.22;;
70975;SDS011;58635;51.198;6.010;2022-10-12T06:35:29;14.68;;;7.45;;
70975;SDS011;58635;51.198;6.010;2022-10-12T06:37:55;14.30;;;7.32;;
70975;SDS011;58635;51.198;6.010;2022-10-12T06:40:20;17.50;;;7.50;;
70975;SDS011;58635;51.198;6.010;2022-10-12T06:42:47;15.57;;;8.13;;
70975;SDS011;58635;51.198;6.010;2022-10-12T06:45:13;12.57;;;7.97;;
70975;SDS011;58635;51.198;6.010;2022-10-12T06:47:39;13.93;;;7.53;;
70975;SDS011;58635;51.198;6.010;2022-10-12T06:50:04;16.98;;;7.55;;
70975;SDS011;58635;51.198;6.010;2022-10-12T06:52:31;12.57;;;7.03;;
70975;SDS011;58635;51.198;6.010;2022-10-12T06:54:57;14.18;;;7.45;;
70975;SDS011;58635;51.198;6.010;2022-10-12T06:57:22;11.65;;;6.85;;
70975;SDS011;58635;51.198;6.010;2022-10-12T06:59:48;15.10;;;8.02;;
70975;SDS011;58635;51.198;6.010;2022-10-12T07:02:13;15.57;;;7.97;;
70975;SDS011;58635;51.198;6.010;2022-10-12T07:04:38;16.80;;;7.72;;
70975;SDS011;58635;51.198;6.010;2022-10-12T07:07:04;10.40;;;6.85;;
70975;SDS011;58635;51.198;6.010;2022-10-12T07:09:29;14.27;;;7.18;;
70975;SDS011;58635;51.198;6.010;2022-10-12T07:11:55;14.07;;;6.72;;
70975;SDS011;58635;51.198;6.010;2022-10-12T07:14:20;15.88;;;7.22;;
70975;SDS011;58635;51.198;6.010;2022-10-12T07:16:45;14.80;;;7.50;;
70975;SDS011;58635;51.198;6.010;2022-10-12T07:19:11;15.02;;;7.47;;
70975;SDS011;58635;51.198;6.010;2022-10-12T07:21:37;17.70;;;7.55;;
70975;SDS011;58635;51.198;6.010;2022-10-12T07:24:03;17.80;;;8.75;;
70975;SDS011;58635;51.198;6.010;2022-10-12T07:26:29;17.25;;;8.45;;
70975;SDS011;58635;51.198;6.010;2022-10-12T07:28:55;17.90;;;8.77;;
70975;SDS011;58635;51.198;6.010;2022-10-12T07:31:21;17.73;;;8.45;;
70975;SDS011;58635;51.198;6.010;2022-10-12T07:33:46;18.45;;;9.30;;
70975;SDS011;58635;51.198;6.010;2022-10-12T07:36:12;17.80;;;8.73;;
70975;SDS011;58635;51.198;6.010;2022-10-12T07:38:37;21.88;;;9.30;;
70975;SDS011;58635;51.198;6.010;2022-10-12T07:41:02;19.95;;;9.02;;
70975;SDS011;58635;51.198;6.010;2022-10-12T07:43:29;19.42;;;9.90;;
70975;SDS011;58635;51.198;6.010;2022-10-12T07:45:55;18.88;;;9.77;;
70975;SDS011;58635;51.198;6.010;2022-10-12T07:48:21;17.27;;;8.80;;
70975;SDS011;58635;51.198;6.010;2022-10-12T07:50:47;18.17;;;10.90;;
70975;SDS011;58635;51.198;6.010;2022-10-12T07:53:13;20.17;;;8.73;;
70975;SDS011;58635;51.198;6.010;2022-10-12T07:55:39;18.33;;;8.27;;
70975;SDS011;58635;51.198;6.010;2022-10-12T07:58:05;18.88;;;8.55;;
70975;SDS011;58635;51.198;6.010;2022-10-12T08:00:30;18.27;;;9.23;;
70975;SDS011;58635;51.198;6.010;2022-10-12T08:02:56;21.42;;;9.85;;
70975;SDS011;58635;51.198;6.010;2022-10-12T08:05:22;22.73;;;9.85;;
70975;SDS011;58635;51.198;6.010;2022-10-12T08:07:49;27.73;;;10.30;;
70975;SDS011;58635;51.198;6.010;2022-10-12T08:10:16;21.42;;;9.88;;
70975;SDS011;58635;51.198;6.010;2022-10-12T08:12:43;19.70;;;9.90;;
70975;SDS011;58635;51.198;6.010;2022-10-12T08:15:09;20.60;;;11.80;;
70975;SDS011;58635;51.198;6.010;2022-10-12T08:17:35;20.08;;;10.85;;
70975;SDS011;58635;51.198;6.010;2022-10-12T08:20:01;23.08;;;10.88;;
70975;SDS011;58635;51.198;6.010;2022-10-12T08:22:27;21.25;;;9.98;;
70975;SDS011;58635;51.198;6.010;2022-10-12T08:24:52;18.13;;;8.90;;
70975;SDS011;58635;51.198;6.010;2022-10-12T08:27:18;14.35;;;7.88;;
70975;SDS011;58635;51.198;6.010;2022-10-12T08:29:43;15.73;;;7.80;;
70975;SDS011;58635;51.198;6.010;2022-10-12T08:32:08;15.98;;;8.32;;
70975;SDS011;58635;51.198;6.010;2022-10-12T08:34:34;19.85;;;9.57;;
70975;SDS011;58635;51.198;6.010;2022-10-12T08:36:59;15.27;;;8.70;;
70975;SDS011;58635;51.198;6.010;2022-10-12T08:39:25;14.98;;;8.25;;
70975;SDS011;58635;51.198;6.010;2022-10-12T08:49:58;17.95;;;7.90;;
70975;SDS011;58635;51.198;6.010;2022-10-12T08:52:30;19.00;;;8.73;;
70975;SDS011;58635;51.198;6.010;2022-10-12T08:55:19;17.42;;;7.97;;
70975;SDS011;58635;51.198;6.010;2022-10-12T08:57:52;21.30;;;8.57;;
70975;SDS011;58635;51.198;6.010;2022-10-12T09:00:18;14.02;;;7.38;;
70975;SDS011;58635;51.198;6.010;2022-10-12T09:02:52;13.55;;;7.18;;
70975;SDS011;58635;51.198;6.010;2022-10-12T09:05:39;13.15;;;7.28;;
70975;SDS011;58635;51.198;6.010;2022-10-12T09:13:43;16.55;;;8.70;;
70975;SDS011;58635;51.198;6.010;2022-10-12T09:16:24;15.98;;;7.85;;
70975;SDS011;58635;51.198;6.010;2022-10-12T09:19:05;15.55;;;7.90;;
70975;SDS011;58635;51.198;6.010;2022-10-12T09:24:05;15.60;;;7.25;;
70975;SDS011;58635;51.198;6.010;2022-10-12T09:26:39;16.45;;;7.43;;
70975;SDS011;58635;51.198;6.010;2022-10-12T09:34:40;13.30;;;7.82;;
70975;SDS011;58635;51.198;6.010;2022-10-12T09:37:08;13.77;;;7.50;;
70975;SDS011;58635;51.198;6.010;2022-10-12T09:39:41;16.85;;;7.68;;
70975;SDS011;58635;51.198;6.010;2022-10-12T09:42:08;14.10;;;7.47;;
70975;SDS011;58635;51.198;6.010;2022-10-12T09:47:21;16.30;;;7.53;;
70975;SDS011;58635;51.198;6.010;2022-10-12T09:49:49;15.10;;;7.75;;
70975;SDS011;58635;51.198;6.010;2022-10-12T09:52:18;13.80;;;8.25;;
70975;SDS011;58635;51.198;6.010;2022-10-12T09:54:48;11.85;;;6.60;;
70975;SDS011;58635;51.198;6.010;2022-10-12T09:57:18;20.10;;;7.50;;
70975;SDS011;58635;51.198;6.010;2022-10-12T09:59:46;16.70;;;5.70;;
70975;SDS011;58635;51.198;6.010;2022-10-12T10:02:16;11.32;;;5.70;;
70975;SDS011;58635;51.198;6.010;2022-10-12T10:04:46;11.38;;;5.47;;
70975;SDS011;58635;51.198;6.010;2022-10-12T10:07:27;13.98;;;5.75;;
70975;SDS011;58635;51.198;6.010;2022-10-12T10:13:01;11.73;;;5.97;;
70975;SDS011;58635;51.198;6.010;2022-10-12T10:15:33;15.48;;;5.85;;
70975;SDS011;58635;51.198;6.010;2022-10-12T10:20:53;10.02;;;5.90;;
70975;SDS011;58635;51.198;6.010;2022-10-12T10:23:25;11.02;;;5.82;;
70975;SDS011;58635;51.198;6.010;2022-10-12T10:25:57;13.48;;;6.00;;
70975;SDS011;58635;51.198;6.010;2022-10-12T10:28:26;14.27;;;6.82;;
70975;SDS011;58635;51.198;6.010;2022-10-12T10:30:54;14.02;;;8.10;;
70975;SDS011;58635;51.198;6.010;2022-10-12T10:33:22;12.32;;;6.97;;
70975;SDS011;58635;51.198;6.010;2022-10-12T10:35:52;11.60;;;7.05;;
70975;SDS011;58635;51.198;6.010;2022-10-12T10:38:20;14.60;;;7.22;;
70975;SDS011;58635;51.198;6.010;2022-10-12T10:40:50;12.07;;;6.88;;
70975;SDS011;58635;51.198;6.010;2022-10-12T10:43:25;13.65;;;7.22;;
70975;SDS011;58635;51.198;6.010;2022-10-12T10:45:54;12.02;;;7.00;;
70975;SDS011;58635;51.198;6.010;2022-10-12T10:48:23;13.85;;;8.45;;
70975;SDS011;58635;51.198;6.010;2022-10-12T10:51:10;16.05;;;8.07;;
70975;SDS011;58635;51.198;6.010;2022-10-12T10:53:43;15.60;;;7.63;;
70975;SDS011;58635;51.198;6.010;2022-10-12T10:56:12;13.80;;;7.13;;
70975;SDS011;58635;51.198;6.010;2022-10-12T10:58:43;18.55;;;8.10;;
70975;SDS011;58635;51.198;6.010;2022-10-12T11:03:52;15.63;;;7.47;;
70975;SDS011;58635;51.198;6.010;2022-10-12T11:06:40;15.18;;;8.02;;
70975;SDS011;58635;51.198;6.010;2022-10-12T11:11:35;12.35;;;6.72;;
70975;SDS011;58635;51.198;6.010;2022-10-12T11:16:47;15.07;;;6.43;;
70975;SDS011;58635;51.198;6.010;2022-10-12T11:22:54;10.20;;;5.93;;
70975;SDS011;58635;51.198;6.010;2022-10-12T11:25:43;12.63;;;5.55;;
70975;SDS011;58635;51.198;6.010;2022-10-12T11:28:22;13.38;;;5.55;;
70975;SDS011;58635;51.198;6.010;2022-10-12T11:30:54;14.15;;;4.88;;
70975;SDS011;58635;51.198;6.010;2022-10-12T11:33:21;9.00;;;4.38;;
70975;SDS011;58635;51.198;6.010;2022-10-12T11:35:51;7.70;;;3.92;;
70975;SDS011;58635;51.198;6.010;2022-10-12T11:38:19;9.63;;;5.40;;
70975;SDS011;58635;51.198;6.010;2022-10-12T11:43:25;11.52;;;4.55;;
70975;SDS011;58635;51.198;6.010;2022-10-12T11:45:57;9.35;;;4.20;;
70975;SDS011;58635;51.198;6.010;2022-10-12T11:48:29;9.15;;;4.00;;
70975;SDS011;58635;51.198;6.010;2022-10-12T11:50:59;11.25;;;4.88;;
70975;SDS011;58635;51.198;6.010;2022-10-12T11:53:37;13.52;;;5.10;;
70975;SDS011;58635;51.198;6.010;2022-10-12T11:56:18;10.82;;;4.90;;
70975;SDS011;58635;51.198;6.010;2022-10-12T11:59:07;12.77;;;6.50;;
70975;SDS011;58635;51.198;6.010;2022-10-12T12:02:00;11.38;;;4.55;;
70975;SDS011;58635;51.198;6.010;2022-10-12T12:04:27;11.95;;;4.65;;
70975;SDS011;58635;51.198;6.010;2022-10-12T12:07:18;11.20;;;4.60;;
70975;SDS011;58635;51.198;6.010;2022-10-12T12:09:47;9.48;;;4.30;;
70975;SDS011;58635;51.198;6.010;2022-10-12T12:12:23;8.43;;;3.88;;
70975;SDS011;58635;51.198;6.010;2022-10-12T12:20:00;13.05;;;3.90;;
70975;SDS011;58635;51.198;6.010;2022-10-12T12:22:46;7.32;;;2.95;;
70975;SDS011;58635;51.198;6.010;2022-10-12T12:25:15;6.93;;;3.08;;
70975;SDS011;58635;51.198;6.010;2022-10-12T12:30:58;8.52;;;2.80;;
70975;SDS011;58635;51.198;6.010;2022-10-12T12:33:29;9.07;;;3.03;;
70975;SDS011;58635;51.198;6.010;2022-10-12T12:36:00;6.93;;;2.90;;
70975;SDS011;58635;51.198;6.010;2022-10-12T12:41:10;6.40;;;3.10;;
70975;SDS011;58635;51.198;6.010;2022-10-12T12:43:49;7.57;;;3.45;;
70975;SDS011;58635;51.198;6.010;2022-10-12T12:46:17;12.20;;;3.80;;
70975;SDS011;58635;51.198;6.010;2022-10-12T12:51:10;8.65;;;3.25;;
70975;SDS011;58635;51.198;6.010;2022-10-12T12:53:48;11.88;;;3.17;;
70975;SDS011;58635;51.198;6.010;2022-10-12T12:56:20;12.15;;;4.10;;
70975;SDS011;58635;51.198;6.010;2022-10-12T13:18:04;9.75;;;3.40;;
70975;SDS011;58635;51.198;6.010;2022-10-12T13:20:43;6.88;;;3.03;;
70975;SDS011;58635;51.198;6.010;2022-10-12T13:23:15;9.20;;;3.58;;
70975;SDS011;58635;51.198;6.010;2022-10-12T13:25:49;7.55;;;3.70;;
70975;SDS011;58635;51.198;6.010;2022-10-12T13:28:19;9.25;;;3.83;;
70975;SDS011;58635;51.198;6.010;2022-10-12T13:30:59;9.27;;;3.65;;
70975;SDS011;58635;51.198;6.010;2022-10-12T13:36:29;8.07;;;3.28;;
70975;SDS011;58635;51.198;6.010;2022-10-12T13:38:57;12.55;;;4.47;;
70975;SDS011;58635;51.198;6.010;2022-10-12T13:41:25;13.35;;;5.00;;
70975;SDS011;58635;51.198;6.010;2022-10-12T13:43:58;11.57;;;4.38;;
70975;SDS011;58635;51.198;6.010;2022-10-12T13:46:36;11.38;;;4.47;;
70975;SDS011;58635;51.198;6.010;2022-10-12T13:49:18;9.93;;;4.55;;
70975;SDS011;58635;51.198;6.010;2022-10-12T13:51:45;10.40;;;3.95;;
70975;SDS011;58635;51.198;6.010;2022-10-12T13:54:20;9.57;;;4.03;;
70975;SDS011;58635;51.198;6.010;2022-10-12T13:56:50;9.70;;;3.75;;
70975;SDS011;58635;51.198;6.010;2022-10-12T13:59:20;10.93;;;3.92;;
70975;SDS011;58635;51.198;6.010;2022-10-12T14:04:21;8.05;;;3.63;;
70975;SDS011;58635;51.198;6.010;2022-10-12T14:07:11;9.63;;;3.90;;
70975;SDS011;58635;51.198;6.010;2022-10-12T14:09:40;10.50;;;4.18;;
70975;SDS011;58635;51.198;6.010;2022-10-12T14:12:09;8.90;;;3.85;;
70975;SDS011;58635;51.198;6.010;2022-10-12T14:14:36;10.80;;;4.00;;
70975;SDS011;58635;51.198;6.010;2022-10-12T14:17:04;11.55;;;3.85;;
70975;SDS011;58635;51.198;6.010;2022-10-12T14:22:23;12.02;;;4.80;;
70975;SDS011;58635;51.198;6.010;2022-10-12T14:24:53;9.52;;;3.97;;
70975;SDS011;58635;51.198;6.010;2022-10-12T14:27:32;11.32;;;3.80;;
70975;SDS011;58635;51.198;6.010;2022-10-12T14:30:06;13.48;;;3.58;;
70975;SDS011;58635;51.198;6.010;2022-10-12T14:32:41;10.55;;;3.88;;
70975;SDS011;58635;51.198;6.010;2022-10-12T14:37:43;10.10;;;3.60;;
70975;SDS011;58635;51.198;6.010;2022-10-12T14:43:05;7.95;;;2.72;;
70975;SDS011;58635;51.198;6.010;2022-10-12T14:45:44;8.98;;;2.80;;
70975;SDS011;58635;51.198;6.010;2022-10-12T14:48:15;8.23;;;3.17;;
70975;SDS011;58635;51.198;6.010;2022-10-12T14:50:42;8.73;;;3.22;;
70975;SDS011;58635;51.198;6.010;2022-10-12T14:53:09;7.28;;;2.83;;
70975;SDS011;58635;51.198;6.010;2022-10-12T14:55:37;7.57;;;2.40;;
70975;SDS011;58635;51.198;6.010;2022-10-12T14:58:03;10.20;;;2.70;;
70975;SDS011;58635;51.198;6.010;2022-10-12T15:00:34;12.70;;;2.92;;
70975;SDS011;58635;51.198;6.010;2022-10-12T15:03:01;6.95;;;2.85;;
70975;SDS011;58635;51.198;6.010;2022-10-12T15:05:28;8.05;;;3.03;;
70975;SDS011;58635;51.198;6.010;2022-10-12T15:07:56;9.32;;;2.92;;
70975;SDS011;58635;51.198;6.010;2022-10-12T15:10:22;7.40;;;2.50;;
70975;SDS011;58635;51.198;6.010;2022-10-12T15:12:49;11.48;;;2.72;;
70975;SDS011;58635;51.198;6.010;2022-10-12T15:15:31;8.10;;;2.42;;
70975;SDS011;58635;51.198;6.010;2022-10-12T15:17:58;9.07;;;2.55;;
70975;SDS011;58635;51.198;6.010;2022-10-12T15:20:26;8.77;;;2.38;;
70975;SDS011;58635;51.198;6.010;2022-10-12T15:22:54;8.68;;;2.72;;
70975;SDS011;58635;51.198;6.010;2022-10-12T15:25:24;7.25;;;2.33;;
70975;SDS011;58635;51.198;6.010;2022-10-12T15:27:57;7.78;;;2.67;;
70975;SDS011;58635;51.198;6.010;2022-10-12T15:30:22;8.82;;;2.75;;
70975;SDS011;58635;51.198;6.010;2022-10-12T15:32:48;8.02;;;2.35;;
70975;SDS011;58635;51.198;6.010;2022-10-12T15:35:15;5.78;;;2.30;;
70975;SDS011;58635;51.198;6.010;2022-10-12T15:37:52;6.10;;;2.15;;
70975;SDS011;58635;51.198;6.010;2022-10-12T15:40:20;9.23;;;2.60;;
70975;SDS011;58635;51.198;6.010;2022-10-12T15:42:46;8.50;;;3.03;;
70975;SDS011;58635;51.198;6.010;2022-10-12T15:45:16;8.18;;;2.50;;
70975;SDS011;58635;51.198;6.010;2022-10-12T15:47:45;8.23;;;2.97;;
70975;SDS011;58635;51.198;6.010;2022-10-12T15:50:11;11.57;;;6.38;;
70975;SDS011;58635;51.198;6.010;2022-10-12T15:52:38;12.05;;;5.00;;
70975;SDS011;58635;51.198;6.010;2022-10-12T15:55:05;8.77;;;3.72;;
70975;SDS011;58635;51.198;6.010;2022-10-12T15:57:39;6.13;;;2.55;;
70975;SDS011;58635;51.198;6.010;2022-10-12T16:00:05;9.52;;;2.75;;
70975;SDS011;58635;51.198;6.010;2022-10-12T16:02:31;9.10;;;2.60;;
70975;SDS011;58635;51.198;6.010;2022-10-12T16:04:56;6.45;;;2.95;;
70975;SDS011;58635;51.198;6.010;2022-10-12T16:07:22;9.55;;;3.20;;
70975;SDS011;58635;51.198;6.010;2022-10-12T16:09:47;6.53;;;3.28;;
70975;SDS011;58635;51.198;6.010;2022-10-12T16:12:12;10.13;;;3.92;;
70975;SDS011;58635;51.198;6.010;2022-10-12T16:14:38;7.40;;;3.63;;
70975;SDS011;58635;51.198;6.010;2022-10-12T16:17:03;10.00;;;3.92;;
70975;SDS011;58635;51.198;6.010;2022-10-12T16:19:29;11.35;;;3.88;;
70975;SDS011;58635;51.198;6.010;2022-10-12T16:21:54;7.43;;;3.90;;
70975;SDS011;58635;51.198;6.010;2022-10-12T16:24:20;9.55;;;3.30;;
70975;SDS011;58635;51.198;6.010;2022-10-12T16:26:45;9.25;;;3.45;;
70975;SDS011;58635;51.198;6.010;2022-10-12T16:29:11;9.13;;;3.78;;
70975;SDS011;58635;51.198;6.010;2022-10-12T16:31:36;11.93;;;3.08;;
70975;SDS011;58635;51.198;6.010;2022-10-12T16:34:02;7.03;;;3.17;;